sensor_id;sensor_type;location;lat;lon;timestamp;temperature;humidity
1678;DHT22;6034;46.864;15.216;2024-01-16T06:01:24;0.00;73.60
1678;DHT22;6034;46.864;15.216;2024-01-16T06:03:53;0.00;73.70
1678;DHT22;6034;46.864;15.216;2024-01-16T06:06:20;0.00;73.00
1678;DHT22;6034;46.864;15.216;2024-01-16T06:08:51;0.00;72.60
1678;DHT22;6034;46.864;15.216;2024-01-16T06:11:29;0.10;70.60
1678;DHT22;6034;46.864;15.216;2024-01-16T06:13:57;0.10;71.60
1678;DHT22;6034;46.864;15.216;2024-01-16T06:16:26;0.10;70.80
1678;DHT22;6034;46.864;15.216;2024-01-16T06:18:55;0.10;72.20
1678;DHT22;6034;46.864;15.216;2024-01-16T06:21:23;1.20;73.50
1678;DHT22;6034;46.864;15.216;2024-01-16T06:23:51;0.10;72.70
1678;DHT22;6034;46.864;15.216;2024-01-16T06:26:18;0.10;73.70
1678;DHT22;6034;46.864;15.216;2024-01-16T06:28:46;0.10;72.40
1678;DHT22;6034;46.864;15.216;2024-01-16T06:31:16;0.20;70.30
1678;DHT22;6034;46.864;15.216;2024-01-16T06:33:45;0.20;69.80
1678;DHT22;6034;46.864;15.216;2024-01-16T06:36:13;0.20;70.70
1678;DHT22;6034;46.864;15.216;2024-01-16T06:38:41;0.20;71.10
1678;DHT22;6034;46.864;15.216;2024-01-16T06:41:08;0.20;70.60
1678;DHT22;6034;46.864;15.216;2024-01-16T06:43:36;0.20;69.80
1678;DHT22;6034;46.864;15.216;2024-01-16T06:46:03;0.20;71.20
1678;DHT22;6034;46.864;15.216;2024-01-16T06:48:31;0.20;71.60
1678;DHT22;6034;46.864;15.216;2024-01-16T06:51:00;0.30;69.20
1678;DHT22;6034;46.864;15.216;2024-01-16T06:53:28;0.30;70.30
1678;DHT22;6034;46.864;15.216;2024-01-16T06:55:55;0.30;69.50
1678;DHT22;6034;46.864;15.216;2024-01-16T06:58:22;0.30;69.80
1678;DHT22;6034;46.864;15.216;2024-01-16T07:00:50;0.40;70.00
1678;DHT22;6034;46.864;15.216;2024-01-16T07:03:17;0.40;69.20
1678;DHT22;6034;46.864;15.216;2024-01-16T07:05:44;0.40;71.70
1678;DHT22;6034;46.864;15.216;2024-01-16T07:08:13;0.40;72.60
1678;DHT22;6034;46.864;15.216;2024-01-16T07:10:40;0.40;73.40
1678;DHT22;6034;46.864;15.216;2024-01-16T07:13:08;0.50;72.60
1678;DHT22;6034;46.864;15.216;2024-01-16T07:15:36;0.50;72.40
1678;DHT22;6034;46.864;15.216;2024-01-16T07:18:04;0.60;71.90
1678;DHT22;6034;46.864;15.216;2024-01-16T07:20:31;0.60;70.70
1678;DHT22;6034;46.864;15.216;2024-01-16T07:22:59;0.70;71.60
1678;DHT22;6034;46.864;15.216;2024-01-16T07:25:28;0.70;71.00
1678;DHT22;6034;46.864;15.216;2024-01-16T07:27:55;0.70;71.90
1678;DHT22;6034;46.864;15.216;2024-01-16T07:30:22;0.70;74.60
1678;DHT22;6034;46.864;15.216;2024-01-16T07:32:50;0.70;75.10
1678;DHT22;6034;46.864;15.216;2024-01-16T07:35:17;0.80;75.90
1678;DHT22;6034;46.864;15.216;2024-01-16T07:37:45;0.80;75.70
1678;DHT22;6034;46.864;15.216;2024-01-16T07:40:12;0.90;76.80
1678;DHT22;6034;46.864;15.216;2024-01-16T07:42:44;0.90;76.70
1678;DHT22;6034;46.864;15.216;2024-01-16T07:45:11;0.90;76.00
1678;DHT22;6034;46.864;15.216;2024-01-16T07:47:39;1.00;77.50
1678;DHT22;6034;46.864;15.216;2024-01-16T07:50:09;1.10;77.10
1678;DHT22;6034;46.864;15.216;2024-01-16T07:52:37;1.10;75.00
1678;DHT22;6034;46.864;15.216;2024-01-16T07:55:05;1.20;75.50
1678;DHT22;6034;46.864;15.216;2024-01-16T07:57:33;1.30;74.40
1678;DHT22;6034;46.864;15.216;2024-01-16T08:00:02;1.40;73.20
1678;DHT22;6034;46.864;15.216;2024-01-16T08:02:32;1.50;72.80
1678;DHT22;6034;46.864;15.216;2024-01-16T08:05:00;1.50;70.60
1678;DHT22;6034;46.864;15.216;2024-01-16T08:07:28;1.60;72.50
1678;DHT22;6034;46.864;15.216;2024-01-16T08:09:55;1.70;70.60
1678;DHT22;6034;46.864;15.216;2024-01-16T08:12:23;1.80;70.50
1678;DHT22;6034;46.864;15.216;2024-01-16T08:14:50;1.80;67.90
1678;DHT22;6034;46.864;15.216;2024-01-16T08:17:19;1.90;68.10
1678;DHT22;6034;46.864;15.216;2024-01-16T08:19:46;2.00;68.20
1678;DHT22;6034;46.864;15.216;2024-01-16T08:22:14;2.00;62.50
1678;DHT22;6034;46.864;15.216;2024-01-16T08:24:41;2.10;64.80
1678;DHT22;6034;46.864;15.216;2024-01-16T08:27:08;2.10;62.10
1678;DHT22;6034;46.864;15.216;2024-01-16T08:29:36;2.20;62.60
1678;DHT22;6034;46.864;15.216;2024-01-16T08:32:03;2.30;58.60
1678;DHT22;6034;46.864;15.216;2024-01-16T08:34:32;2.40;59.70
1678;DHT22;6034;46.864;15.216;2024-01-16T08:37:00;2.50;62.80
1678;DHT22;6034;46.864;15.216;2024-01-16T08:39:27;2.60;65.80
1678;DHT22;6034;46.864;15.216;2024-01-16T08:41:58;2.70;63.00
1678;DHT22;6034;46.864;15.216;2024-01-16T08:44:28;2.70;63.80
1678;DHT22;6034;46.864;15.216;2024-01-16T08:46:56;2.60;70.60
1678;DHT22;6034;46.864;15.216;2024-01-16T08:49:23;2.60;70.40
1678;DHT22;6034;46.864;15.216;2024-01-16T08:51:52;2.60;71.80
1678;DHT22;6034;46.864;15.216;2024-01-16T08:54:19;2.70;73.20
1678;DHT22;6034;46.864;15.216;2024-01-16T08:56:48;2.80;72.90
1678;DHT22;6034;46.864;15.216;2024-01-16T08:59:16;2.90;72.50
1678;DHT22;6034;46.864;15.216;2024-01-16T09:01:44;2.80;70.70
1678;DHT22;6034;46.864;15.216;2024-01-16T09:04:11;2.80;71.50
1678;DHT22;6034;46.864;15.216;2024-01-16T09:06:39;2.80;70.80
1678;DHT22;6034;46.864;15.216;2024-01-16T09:09:07;2.80;68.30
1678;DHT22;6034;46.864;15.216;2024-01-16T09:11:35;2.90;68.60
1678;DHT22;6034;46.864;15.216;2024-01-16T09:14:03;3.00;67.90
1678;DHT22;6034;46.864;15.216;2024-01-16T09:16:30;2.90;66.80
1678;DHT22;6034;46.864;15.216;2024-01-16T09:18:58;3.00;68.80
1678;DHT22;6034;46.864;15.216;2024-01-16T09:21:25;3.10;70.90
1678;DHT22;6034;46.864;15.216;2024-01-16T09:23:54;3.20;70.90
1678;DHT22;6034;46.864;15.216;2024-01-16T09:26:23;3.20;67.10
1678;DHT22;6034;46.864;15.216;2024-01-16T09:28:50;3.40;68.40
1678;DHT22;6034;46.864;15.216;2024-01-16T09:31:17;3.40;69.60
1678;DHT22;6034;46.864;15.216;2024-01-16T09:33:45;3.30;68.30
1678;DHT22;6034;46.864;15.216;2024-01-16T09:36:12;3.40;74.30
1678;DHT22;6034;46.864;15.216;2024-01-16T09:38:40;3.60;78.40
1678;DHT22;6034;46.864;15.216;2024-01-16T09:41:07;3.60;78.20
1678;DHT22;6034;46.864;15.216;2024-01-16T09:43:36;3.30;77.30
1678;DHT22;6034;46.864;15.216;2024-01-16T09:46:05;3.10;75.10
1678;DHT22;6034;46.864;15.216;2024-01-16T09:48:33;3.00;74.20
1678;DHT22;6034;46.864;15.216;2024-01-16T09:51:00;3.10;74.20
1678;DHT22;6034;46.864;15.216;2024-01-16T09:53:27;3.20;73.10
1678;DHT22;6034;46.864;15.216;2024-01-16T09:56:00;3.40;72.80
1678;DHT22;6034;46.864;15.216;2024-01-16T09:58:33;3.40;73.30
1678;DHT22;6034;46.864;15.216;2024-01-16T10:01:03;3.50;72.50
1678;DHT22;6034;46.864;15.216;2024-01-16T10:03:31;3.50;67.40
1678;DHT22;6034;46.864;15.216;2024-01-16T10:05:59;3.50;71.30
1678;DHT22;6034;46.864;15.216;2024-01-16T10:08:29;3.60;69.50
1678;DHT22;6034;46.864;15.216;2024-01-16T10:10:57;3.40;67.80
1678;DHT22;6034;46.864;15.216;2024-01-16T10:13:26;3.50;69.40
1678;DHT22;6034;46.864;15.216;2024-01-16T10:15:54;3.50;66.90
1678;DHT22;6034;46.864;15.216;2024-01-16T10:18:27;3.50;67.90
1678;DHT22;6034;46.864;15.216;2024-01-16T10:20:55;3.60;63.60
1678;DHT22;6034;46.864;15.216;2024-01-16T10:23:24;3.80;65.50
1678;DHT22;6034;46.864;15.216;2024-01-16T10:26:07;3.90;64.50
1678;DHT22;6034;46.864;15.216;2024-01-16T10:28:35;4.00;63.30
1678;DHT22;6034;46.864;15.216;2024-01-16T10:31:03;4.10;65.30
1678;DHT22;6034;46.864;15.216;2024-01-16T10:33:33;4.20;66.20
1678;DHT22;6034;46.864;15.216;2024-01-16T10:36:11;4.20;65.40
1678;DHT22;6034;46.864;15.216;2024-01-16T10:38:39;4.20;65.70
1678;DHT22;6034;46.864;15.216;2024-01-16T10:41:09;4.30;63.70
1678;DHT22;6034;46.864;15.216;2024-01-16T10:43:37;4.30;62.80
1678;DHT22;6034;46.864;15.216;2024-01-16T10:46:11;4.40;63.00
1678;DHT22;6034;46.864;15.216;2024-01-16T10:48:42;4.30;62.00
1678;DHT22;6034;46.864;15.216;2024-01-16T10:51:14;4.40;62.30
1678;DHT22;6034;46.864;15.216;2024-01-16T10:53:43;4.30;61.00
1678;DHT22;6034;46.864;15.216;2024-01-16T10:56:12;4.40;58.20
1678;DHT22;6034;46.864;15.216;2024-01-16T10:58:42;4.30;59.50
1678;DHT22;6034;46.864;15.216;2024-01-16T11:01:11;4.50;58.80
1678;DHT22;6034;46.864;15.216;2024-01-16T11:03:46;4.40;59.00
1678;DHT22;6034;46.864;15.216;2024-01-16T11:06:15;4.40;57.90
1678;DHT22;6034;46.864;15.216;2024-01-16T11:08:45;4.40;58.70
1678;DHT22;6034;46.864;15.216;2024-01-16T11:11:14;4.40;59.20
1678;DHT22;6034;46.864;15.216;2024-01-16T11:13:42;4.50;59.20
1678;DHT22;6034;46.864;15.216;2024-01-16T11:16:11;4.60;62.30
1678;DHT22;6034;46.864;15.216;2024-01-16T11:18:39;4.60;60.70
1678;DHT22;6034;46.864;15.216;2024-01-16T11:21:09;4.50;61.20
1678;DHT22;6034;46.864;15.216;2024-01-16T11:23:38;4.60;62.30
1678;DHT22;6034;46.864;15.216;2024-01-16T11:26:27;4.40;60.10
1678;DHT22;6034;46.864;15.216;2024-01-16T11:28:57;4.40;62.50
1678;DHT22;6034;46.864;15.216;2024-01-16T11:31:29;4.50;63.90
1678;DHT22;6034;46.864;15.216;2024-01-16T11:33:57;4.60;63.70
1678;DHT22;6034;46.864;15.216;2024-01-16T11:36:51;4.60;63.60
1678;DHT22;6034;46.864;15.216;2024-01-16T11:39:22;4.70;63.50
1678;DHT22;6034;46.864;15.216;2024-01-16T11:41:51;4.70;62.30
1678;DHT22;6034;46.864;15.216;2024-01-16T11:44:42;4.60;62.30
1678;DHT22;6034;46.864;15.216;2024-01-16T11:47:17;4.60;61.80
1678;DHT22;6034;46.864;15.216;2024-01-16T11:49:44;4.60;64.00
1678;DHT22;6034;46.864;15.216;2024-01-16T11:52:14;4.60;63.70
1678;DHT22;6034;46.864;15.216;2024-01-16T11:54:42;4.60;63.40
1678;DHT22;6034;46.864;15.216;2024-01-16T12:00:07;4.70;62.40
1678;DHT22;6034;46.864;15.216;2024-01-16T12:02:53;4.60;63.20
1678;DHT22;6034;46.864;15.216;2024-01-16T12:05:21;4.50;61.90
1678;DHT22;6034;46.864;15.216;2024-01-16T12:07:51;4.50;60.60
1678;DHT22;6034;46.864;15.216;2024-01-16T12:10:20;4.20;59.60
1678;DHT22;6034;46.864;15.216;2024-01-16T12:12:49;4.30;60.90
1678;DHT22;6034;46.864;15.216;2024-01-16T12:15:17;4.20;61.00
1678;DHT22;6034;46.864;15.216;2024-01-16T12:17:53;4.40;63.30
1678;DHT22;6034;46.864;15.216;2024-01-16T12:20:21;4.50;63.60
1678;DHT22;6034;46.864;15.216;2024-01-16T12:23:00;4.50;63.60
1678;DHT22;6034;46.864;15.216;2024-01-16T12:25:30;4.40;61.20
1678;DHT22;6034;46.864;15.216;2024-01-16T12:27:58;4.40;61.10
1678;DHT22;6034;46.864;15.216;2024-01-16T12:30:27;4.60;63.40
1678;DHT22;6034;46.864;15.216;2024-01-16T12:33:05;4.50;62.20
1678;DHT22;6034;46.864;15.216;2024-01-16T12:35:34;4.20;60.70
1678;DHT22;6034;46.864;15.216;2024-01-16T12:38:04;4.20;59.40
1678;DHT22;6034;46.864;15.216;2024-01-16T12:40:33;4.30;63.00
1678;DHT22;6034;46.864;15.216;2024-01-16T12:43:02;4.20;61.40
1678;DHT22;6034;46.864;15.216;2024-01-16T12:45:30;4.10;60.90
1678;DHT22;6034;46.864;15.216;2024-01-16T12:47:59;4.10;60.50
1678;DHT22;6034;46.864;15.216;2024-01-16T12:50:28;4.00;62.00
1678;DHT22;6034;46.864;15.216;2024-01-16T12:53:05;3.90;61.80
1678;DHT22;6034;46.864;15.216;2024-01-16T12:55:35;3.90;63.70
1678;DHT22;6034;46.864;15.216;2024-01-16T12:58:16;4.00;65.00
1678;DHT22;6034;46.864;15.216;2024-01-16T13:00:43;4.10;64.50
1678;DHT22;6034;46.864;15.216;2024-01-16T13:03:18;4.10;64.90
1678;DHT22;6034;46.864;15.216;2024-01-16T13:05:54;3.90;65.20
1678;DHT22;6034;46.864;15.216;2024-01-16T13:08:23;4.10;66.80
1678;DHT22;6034;46.864;15.216;2024-01-16T13:11:02;4.00;67.20
1678;DHT22;6034;46.864;15.216;2024-01-16T13:13:30;3.60;66.30
1678;DHT22;6034;46.864;15.216;2024-01-16T13:15:58;3.70;69.10
1678;DHT22;6034;46.864;15.216;2024-01-16T13:18:27;3.90;68.50
1678;DHT22;6034;46.864;15.216;2024-01-16T13:20:55;4.00;68.70
1678;DHT22;6034;46.864;15.216;2024-01-16T13:23:25;4.10;69.30
1678;DHT22;6034;46.864;15.216;2024-01-16T13:25:54;4.10;69.00
1678;DHT22;6034;46.864;15.216;2024-01-16T13:28:23;4.00;69.30
1678;DHT22;6034;46.864;15.216;2024-01-16T13:30:51;3.90;69.90
1678;DHT22;6034;46.864;15.216;2024-01-16T13:33:19;3.90;70.90
1678;DHT22;6034;46.864;15.216;2024-01-16T13:35:47;4.00;70.40
1678;DHT22;6034;46.864;15.216;2024-01-16T13:38:15;4.10;70.60
1678;DHT22;6034;46.864;15.216;2024-01-16T13:40:44;3.80;70.50
1678;DHT22;6034;46.864;15.216;2024-01-16T13:43:11;3.70;72.00
1678;DHT22;6034;46.864;15.216;2024-01-16T13:45:39;3.60;72.90
1678;DHT22;6034;46.864;15.216;2024-01-16T13:48:07;3.70;72.50
1678;DHT22;6034;46.864;15.216;2024-01-16T13:50:35;3.80;73.50
1678;DHT22;6034;46.864;15.216;2024-01-16T13:53:03;3.70;73.60
1678;DHT22;6034;46.864;15.216;2024-01-16T13:55:30;3.70;74.00
1678;DHT22;6034;46.864;15.216;2024-01-16T13:57:59;3.80;73.90
1678;DHT22;6034;46.864;15.216;2024-01-16T14:00:27;3.80;73.70
1678;DHT22;6034;46.864;15.216;2024-01-16T14:02:55;4.00;74.00
1678;DHT22;6034;46.864;15.216;2024-01-16T14:05:24;3.90;73.10
1678;DHT22;6034;46.864;15.216;2024-01-16T14:07:52;3.80;73.70
1678;DHT22;6034;46.864;15.216;2024-01-16T14:10:21;3.80;73.90
1678;DHT22;6034;46.864;15.216;2024-01-16T14:12:51;3.80;73.50
1678;DHT22;6034;46.864;15.216;2024-01-16T14:15:20;3.70;73.80
1678;DHT22;6034;46.864;15.216;2024-01-16T14:17:50;3.70;74.30
1678;DHT22;6034;46.864;15.216;2024-01-16T14:20:19;3.80;74.60
1678;DHT22;6034;46.864;15.216;2024-01-16T14:22:49;3.80;74.30
1678;DHT22;6034;46.864;15.216;2024-01-16T14:25:18;3.90;74.30
1678;DHT22;6034;46.864;15.216;2024-01-16T14:27:48;3.80;74.40
1678;DHT22;6034;46.864;15.216;2024-01-16T14:30:16;3.80;74.80
1678;DHT22;6034;46.864;15.216;2024-01-16T14:32:46;3.80;74.40
1678;DHT22;6034;46.864;15.216;2024-01-16T14:35:14;3.90;75.10
1678;DHT22;6034;46.864;15.216;2024-01-16T14:37:43;3.90;75.00
1678;DHT22;6034;46.864;15.216;2024-01-16T14:40:11;3.80;75.10
1678;DHT22;6034;46.864;15.216;2024-01-16T14:42:42;3.70;75.30
1678;DHT22;6034;46.864;15.216;2024-01-16T14:45:10;3.60;74.80
1678;DHT22;6034;46.864;15.216;2024-01-16T14:47:38;3.60;76.30
1678;DHT22;6034;46.864;15.216;2024-01-16T14:50:08;3.70;76.90
1678;DHT22;6034;46.864;15.216;2024-01-16T14:52:38;3.50;76.10
1678;DHT22;6034;46.864;15.216;2024-01-16T14:55:06;3.30;76.20
1678;DHT22;6034;46.864;15.216;2024-01-16T14:57:34;3.30;77.10
1678;DHT22;6034;46.864;15.216;2024-01-16T15:00:08;3.40;77.80
1678;DHT22;6034;46.864;15.216;2024-01-16T15:02:41;3.50;78.10
1678;DHT22;6034;46.864;15.216;2024-01-16T15:05:11;3.50;77.40
1678;DHT22;6034;46.864;15.216;2024-01-16T15:07:39;3.40;77.20
1678;DHT22;6034;46.864;15.216;2024-01-16T15:10:09;3.40;77.10
1678;DHT22;6034;46.864;15.216;2024-01-16T15:12:38;3.40;77.50
1678;DHT22;6034;46.864;15.216;2024-01-16T15:15:06;3.50;77.80
1678;DHT22;6034;46.864;15.216;2024-01-16T15:17:35;3.40;77.60
1678;DHT22;6034;46.864;15.216;2024-01-16T15:20:03;3.40;77.70
1678;DHT22;6034;46.864;15.216;2024-01-16T15:22:37;3.30;77.90
1678;DHT22;6034;46.864;15.216;2024-01-16T15:25:05;3.30;77.10
1678;DHT22;6034;46.864;15.216;2024-01-16T15:27:32;3.30;77.50
1678;DHT22;6034;46.864;15.216;2024-01-16T15:30:01;3.30;77.70
1678;DHT22;6034;46.864;15.216;2024-01-16T15:32:29;3.20;77.80
1678;DHT22;6034;46.864;15.216;2024-01-16T15:34:57;3.10;78.20
1678;DHT22;6034;46.864;15.216;2024-01-16T15:37:26;3.10;78.50
1678;DHT22;6034;46.864;15.216;2024-01-16T15:39:54;3.10;79.10
1678;DHT22;6034;46.864;15.216;2024-01-16T15:42:22;3.00;79.50
1678;DHT22;6034;46.864;15.216;2024-01-16T15:44:51;3.00;79.20
1678;DHT22;6034;46.864;15.216;2024-01-16T15:47:19;2.80;80.40
1678;DHT22;6034;46.864;15.216;2024-01-16T15:49:46;2.70;79.50
1678;DHT22;6034;46.864;15.216;2024-01-16T15:52:14;2.70;79.50
1678;DHT22;6034;46.864;15.216;2024-01-16T15:54:42;2.90;79.80
1678;DHT22;6034;46.864;15.216;2024-01-16T15:57:19;2.90;78.00
1678;DHT22;6034;46.864;15.216;2024-01-16T15:59:47;2.70;78.70
1678;DHT22;6034;46.864;15.216;2024-01-16T16:02:15;2.50;78.60
1678;DHT22;6034;46.864;15.216;2024-01-16T16:04:42;2.40;79.40
1678;DHT22;6034;46.864;15.216;2024-01-16T16:07:10;2.40;79.50
1678;DHT22;6034;46.864;15.216;2024-01-16T16:09:39;2.40;79.50
1678;DHT22;6034;46.864;15.216;2024-01-16T16:12:07;2.40;79.40
1678;DHT22;6034;46.864;15.216;2024-01-16T16:14:36;2.50;78.90
1678;DHT22;6034;46.864;15.216;2024-01-16T16:17:07;2.50;79.00
1678;DHT22;6034;46.864;15.216;2024-01-16T16:19:35;2.40;78.60
1678;DHT22;6034;46.864;15.216;2024-01-16T16:22:03;2.30;78.40
1678;DHT22;6034;46.864;15.216;2024-01-16T16:24:35;2.20;79.40
1678;DHT22;6034;46.864;15.216;2024-01-16T16:27:21;2.20;80.10
1678;DHT22;6034;46.864;15.216;2024-01-16T16:29:52;2.20;80.90
1678;DHT22;6034;46.864;15.216;2024-01-16T16:32:20;2.20;79.80
1678;DHT22;6034;46.864;15.216;2024-01-16T16:34:47;2.20;81.10
1678;DHT22;6034;46.864;15.216;2024-01-16T16:37:15;2.30;79.60
1678;DHT22;6034;46.864;15.216;2024-01-16T16:39:43;2.30;79.70
1678;DHT22;6034;46.864;15.216;2024-01-16T16:42:11;2.30;79.50
1678;DHT22;6034;46.864;15.216;2024-01-16T16:44:39;2.20;78.50
1678;DHT22;6034;46.864;15.216;2024-01-16T16:47:08;2.00;79.00
1678;DHT22;6034;46.864;15.216;2024-01-16T16:49:36;2.10;80.10
1678;DHT22;6034;46.864;15.216;2024-01-16T16:52:04;2.10;80.40
1678;DHT22;6034;46.864;15.216;2024-01-16T16:54:32;2.00;80.60
1678;DHT22;6034;46.864;15.216;2024-01-16T16:56:59;1.90;80.20
1678;DHT22;6034;46.864;15.216;2024-01-16T16:59:27;1.90;80.80
1678;DHT22;6034;46.864;15.216;2024-01-16T17:01:55;2.00;81.00
1678;DHT22;6034;46.864;15.216;2024-01-16T17:04:31;1.80;80.80
1678;DHT22;6034;46.864;15.216;2024-01-16T17:06:58;1.80;81.30
1678;DHT22;6034;46.864;15.216;2024-01-16T17:09:26;1.90;81.80
1678;DHT22;6034;46.864;15.216;2024-01-16T17:11:54;1.90;81.80
1678;DHT22;6034;46.864;15.216;2024-01-16T17:14:22;1.90;81.50
1678;DHT22;6034;46.864;15.216;2024-01-16T17:16:49;1.90;81.60
1678;DHT22;6034;46.864;15.216;2024-01-16T17:19:17;1.90;82.10
1678;DHT22;6034;46.864;15.216;2024-01-16T17:21:46;2.00;82.00
1678;DHT22;6034;46.864;15.216;2024-01-16T17:24:14;1.90;81.70
1678;DHT22;6034;46.864;15.216;2024-01-16T17:26:41;1.90;82.10
1678;DHT22;6034;46.864;15.216;2024-01-16T17:29:10;1.80;81.90
1678;DHT22;6034;46.864;15.216;2024-01-16T17:31:44;1.80;82.00
1678;DHT22;6034;46.864;15.216;2024-01-16T17:34:11;1.80;82.40
1678;DHT22;6034;46.864;15.216;2024-01-16T17:36:39;1.80;82.30
1678;DHT22;6034;46.864;15.216;2024-01-16T17:39:07;1.70;82.10
1678;DHT22;6034;46.864;15.216;2024-01-16T17:41:36;1.70;82.20
1678;DHT22;6034;46.864;15.216;2024-01-16T17:44:04;1.70;82.40
1678;DHT22;6034;46.864;15.216;2024-01-16T17:46:32;1.80;82.40
1678;DHT22;6034;46.864;15.216;2024-01-16T17:48:59;1.70;82.20
1678;DHT22;6034;46.864;15.216;2024-01-16T17:51:28;1.70;82.60
1678;DHT22;6034;46.864;15.216;2024-01-16T17:53:56;1.80;82.90
1678;DHT22;6034;46.864;15.216;2024-01-16T17:56:26;1.80;83.10
1678;DHT22;6034;46.864;15.216;2024-01-16T17:58:53;1.80;82.80
1678;DHT22;6034;46.864;15.216;2024-01-16T18:01:21;1.80;82.90
1678;DHT22;6034;46.864;15.216;2024-01-16T18:03:48;1.70;82.90
1678;DHT22;6034;46.864;15.216;2024-01-16T18:06:16;1.70;83.00
1678;DHT22;6034;46.864;15.216;2024-01-16T18:08:46;1.60;82.80
1678;DHT22;6034;46.864;15.216;2024-01-16T18:11:14;1.50;83.40
1678;DHT22;6034;46.864;15.216;2024-01-16T18:13:43;1.50;83.40
1678;DHT22;6034;46.864;15.216;2024-01-16T18:16:11;1.40;83.70
1678;DHT22;6034;46.864;15.216;2024-01-16T18:18:39;1.30;84.00
1678;DHT22;6034;46.864;15.216;2024-01-16T18:21:07;1.20;84.30
1678;DHT22;6034;46.864;15.216;2024-01-16T18:23:37;1.10;84.30
1678;DHT22;6034;46.864;15.216;2024-01-16T18:26:04;1.00;84.90
1678;DHT22;6034;46.864;15.216;2024-01-16T18:28:33;1.10;85.20
1678;DHT22;6034;46.864;15.216;2024-01-16T18:31:02;1.20;85.00
1678;DHT22;6034;46.864;15.216;2024-01-16T18:33:29;1.10;84.90
1678;DHT22;6034;46.864;15.216;2024-01-16T18:35:58;1.10;85.10
1678;DHT22;6034;46.864;15.216;2024-01-16T18:38:28;1.10;85.30
1678;DHT22;6034;46.864;15.216;2024-01-16T18:40:55;1.10;85.90
1678;DHT22;6034;46.864;15.216;2024-01-16T18:43:24;1.20;85.90
1678;DHT22;6034;46.864;15.216;2024-01-16T18:45:51;1.20;85.80
1678;DHT22;6034;46.864;15.216;2024-01-16T18:48:20;1.20;85.60
1678;DHT22;6034;46.864;15.216;2024-01-16T18:50:48;1.20;85.40
1678;DHT22;6034;46.864;15.216;2024-01-16T18:53:16;1.20;85.20
1678;DHT22;6034;46.864;15.216;2024-01-16T18:55:45;1.00;86.40
1678;DHT22;6034;46.864;15.216;2024-01-16T18:58:13;0.90;86.20
1678;DHT22;6034;46.864;15.216;2024-01-16T19:00:41;1.00;86.90
1678;DHT22;6034;46.864;15.216;2024-01-16T19:03:09;1.00;86.40
1678;DHT22;6034;46.864;15.216;2024-01-16T19:05:40;1.00;86.30
1678;DHT22;6034;46.864;15.216;2024-01-16T19:08:09;1.00;86.30
1678;DHT22;6034;46.864;15.216;2024-01-16T19:10:38;1.00;86.10
1678;DHT22;6034;46.864;15.216;2024-01-16T19:13:09;0.90;85.80
1678;DHT22;6034;46.864;15.216;2024-01-16T19:15:40;0.70;86.20
1678;DHT22;6034;46.864;15.216;2024-01-16T19:18:10;0.70;86.70
1678;DHT22;6034;46.864;15.216;2024-01-16T19:20:39;0.80;86.90
1678;DHT22;6034;46.864;15.216;2024-01-16T19:23:08;0.80;86.50
1678;DHT22;6034;46.864;15.216;2024-01-16T19:25:37;0.90;86.80
1678;DHT22;6034;46.864;15.216;2024-01-16T19:28:05;0.80;86.40
1678;DHT22;6034;46.864;15.216;2024-01-16T19:30:33;0.70;87.00
1678;DHT22;6034;46.864;15.216;2024-01-16T19:33:15;0.70;87.40
1678;DHT22;6034;46.864;15.216;2024-01-16T19:35:49;0.70;87.50
1678;DHT22;6034;46.864;15.216;2024-01-16T19:38:16;0.70;87.60
1678;DHT22;6034;46.864;15.216;2024-01-16T19:40:43;0.70;87.70
1678;DHT22;6034;46.864;15.216;2024-01-16T19:43:12;0.70;87.70
1678;DHT22;6034;46.864;15.216;2024-01-16T19:45:40;0.70;87.70
1678;DHT22;6034;46.864;15.216;2024-01-16T19:48:08;0.60;87.60
1678;DHT22;6034;46.864;15.216;2024-01-16T19:50:38;0.60;87.80
1678;DHT22;6034;46.864;15.216;2024-01-16T19:53:07;0.60;88.00
1678;DHT22;6034;46.864;15.216;2024-01-16T19:55:37;0.60;88.30
1678;DHT22;6034;46.864;15.216;2024-01-16T19:58:06;0.60;88.20
1678;DHT22;6034;46.864;15.216;2024-01-16T20:00:34;0.60;88.10
1678;DHT22;6034;46.864;15.216;2024-01-16T20:03:05;0.70;88.00
1678;DHT22;6034;46.864;15.216;2024-01-16T20:05:34;0.60;87.90
1678;DHT22;6034;46.864;15.216;2024-01-16T20:08:04;0.70;88.30
1678;DHT22;6034;46.864;15.216;2024-01-16T20:10:34;0.80;88.30
1678;DHT22;6034;46.864;15.216;2024-01-16T20:13:04;0.60;89.00
1678;DHT22;6034;46.864;15.216;2024-01-16T20:15:33;0.60;88.40
1678;DHT22;6034;46.864;15.216;2024-01-16T20:18:01;0.50;88.50
1678;DHT22;6034;46.864;15.216;2024-01-16T20:20:29;0.40;88.70
1678;DHT22;6034;46.864;15.216;2024-01-16T20:22:57;0.50;88.90
1678;DHT22;6034;46.864;15.216;2024-01-16T20:25:24;0.60;88.90
1678;DHT22;6034;46.864;15.216;2024-01-16T20:27:53;0.50;88.80
1678;DHT22;6034;46.864;15.216;2024-01-16T20:30:21;0.50;88.80
1678;DHT22;6034;46.864;15.216;2024-01-16T20:32:48;0.40;89.10
1678;DHT22;6034;46.864;15.216;2024-01-16T20:35:17;0.50;89.20
1678;DHT22;6034;46.864;15.216;2024-01-16T20:37:45;0.40;89.40
1678;DHT22;6034;46.864;15.216;2024-01-16T20:40:12;0.40;89.20
1678;DHT22;6034;46.864;15.216;2024-01-16T20:42:40;0.30;89.20
1678;DHT22;6034;46.864;15.216;2024-01-16T20:45:09;0.10;89.90
1678;DHT22;6034;46.864;15.216;2024-01-16T20:47:37;0.00;90.10
1678;DHT22;6034;46.864;15.216;2024-01-16T20:50:06;0.20;90.10
1678;DHT22;6034;46.864;15.216;2024-01-16T20:52:35;0.20;90.10
1678;DHT22;6034;46.864;15.216;2024-01-16T20:55:02;0.20;90.00
1678;DHT22;6034;46.864;15.216;2024-01-16T20:57:32;0.30;90.00
1678;DHT22;6034;46.864;15.216;2024-01-16T21:00:02;0.10;90.20
1678;DHT22;6034;46.864;15.216;2024-01-16T21:02:32;0.00;90.40
1678;DHT22;6034;46.864;15.216;2024-01-16T21:04:59;0.10;90.30
1678;DHT22;6034;46.864;15.216;2024-01-16T21:07:26;0.10;90.30
1678;DHT22;6034;46.864;15.216;2024-01-16T21:09:54;0.10;90.30
1678;DHT22;6034;46.864;15.216;2024-01-16T21:12:21;0.10;90.40
1678;DHT22;6034;46.864;15.216;2024-01-16T21:14:48;0.10;91.10
1678;DHT22;6034;46.864;15.216;2024-01-16T21:17:16;0.10;90.70
1678;DHT22;6034;46.864;15.216;2024-01-16T21:19:45;0.10;90.60
1678;DHT22;6034;46.864;15.216;2024-01-16T21:22:12;0.10;90.50
1678;DHT22;6034;46.864;15.216;2024-01-16T21:24:40;0.10;90.50
1678;DHT22;6034;46.864;15.216;2024-01-16T21:27:08;0.10;90.60
1678;DHT22;6034;46.864;15.216;2024-01-16T21:29:40;0.60;91.10
1678;DHT22;6034;46.864;15.216;2024-01-16T21:32:10;-0.10;91.10
1678;DHT22;6034;46.864;15.216;2024-01-16T21:34:38;0.00;91.10
1678;DHT22;6034;46.864;15.216;2024-01-16T21:37:07;-0.10;90.90
1678;DHT22;6034;46.864;15.216;2024-01-16T21:39:34;-0.10;91.10
1678;DHT22;6034;46.864;15.216;2024-01-16T21:42:02;-0.20;91.10
1678;DHT22;6034;46.864;15.216;2024-01-16T21:44:31;-0.20;91.10
1678;DHT22;6034;46.864;15.216;2024-01-16T21:46:58;-0.20;91.10
1678;DHT22;6034;46.864;15.216;2024-01-16T21:49:26;-0.30;91.20
1678;DHT22;6034;46.864;15.216;2024-01-16T21:51:53;-0.20;91.20
1678;DHT22;6034;46.864;15.216;2024-01-16T21:54:24;-0.20;91.00
1678;DHT22;6034;46.864;15.216;2024-01-16T21:56:53;-0.10;91.00
1678;DHT22;6034;46.864;15.216;2024-01-16T21:59:20;-0.20;90.90
1678;DHT22;6034;46.864;15.216;2024-01-16T22:01:47;-0.20;90.90
1678;DHT22;6034;46.864;15.216;2024-01-16T22:04:15;-0.10;91.00
1678;DHT22;6034;46.864;15.216;2024-01-16T22:06:42;-0.10;90.80
1678;DHT22;6034;46.864;15.216;2024-01-16T22:09:10;-0.10;91.00
1678;DHT22;6034;46.864;15.216;2024-01-16T22:11:41;-0.10;91.10
1678;DHT22;6034;46.864;15.216;2024-01-16T22:14:08;-0.10;91.10
1678;DHT22;6034;46.864;15.216;2024-01-16T22:16:38;-0.10;91.50